Time;durP1;ratioP1;P1;durP2;ratioP2;P2;SDS_P1;SDS_P2;PMS_P1;PMS_P2;Temp;Humidity;BMP_temperature;BMP_pressure;BME280_temperature;BME280_humidity;BME280_pressure;Samples;Min_cycle;Max_cycle;Signal;HPM_P1;HPM_P2
2023/05/02 00:02:20;;;;;;;5.30;1.87;;;;;;;16.50;34.33;99179.88;4369678;32;33252;-87
2023/05/02 00:04:47;;;;;;;5.45;2.00;;;;;;;16.60;34.39;99178.06;4355216;32;35119;-87
2023/05/02 00:07:15;;;;;;;9.20;1.85;;;;;;;16.82;33.78;99179.56;4366019;32;33291;-87
2023/05/02 00:09:42;;;;;;;6.85;2.03;;;;;;;16.85;33.87;99176.88;4343266;32;34118;-87
2023/05/02 00:12:10;;;;;;;3.70;1.80;;;;;;;16.66;34.38;99177.97;4347385;32;33818;-87
2023/05/02 00:14:37;;;;;;;4.62;1.75;;;;;;;16.69;34.25;99178.78;4362724;32;33980;-88
2023/05/02 00:17:05;;;;;;;4.32;1.95;;;;;;;16.69;34.57;99165.72;4372472;32;33524;-87
2023/05/02 00:19:37;;;;;;;4.32;1.60;;;;;;;16.80;34.27;99170.84;4348848;32;33468;-87
2023/05/02 00:22:05;;;;;;;5.18;1.65;;;;;;;16.69;34.72;99172.69;4350896;32;34021;-88
2023/05/02 00:24:32;;;;;;;4.32;1.60;;;;;;;16.95;33.98;99165.41;4371502;32;34112;-87
2023/05/02 00:27:00;;;;;;;7.53;1.87;;;;;;;16.70;34.62;99170.06;4368384;32;33586;-88
2023/05/02 00:29:28;;;;;;;5.07;1.67;;;;;;;16.83;34.08;99170.81;4364361;32;34375;-88
2023/05/02 00:31:56;;;;;;;4.87;1.70;;;;;;;16.85;34.19;99169.03;4365836;32;33844;-87
2023/05/02 00:34:29;;;;;;;3.87;1.70;;;;;;;16.71;34.70;99176.19;4355433;32;34202;-88
2023/05/02 00:36:57;;;;;;;5.57;1.85;;;;;;;16.76;34.34;99179.63;4369948;32;33956;-88
2023/05/02 00:39:25;;;;;;;4.75;1.80;;;;;;;16.78;34.99;99177.84;4361123;32;33418;-87
2023/05/02 00:41:58;;;;;;;8.38;1.70;;;;;;;16.69;34.96;99177.94;4370305;32;34705;-87
2023/05/02 00:44:27;;;;;;;5.40;1.95;;;;;;;16.78;34.52;99172.59;4353616;32;33655;-87
2023/05/02 00:46:55;;;;;;;5.40;1.80;;;;;;;16.69;35.19;99177.94;4347861;32;34482;-87
2023/05/02 00:49:23;;;;;;;4.12;1.90;;;;;;;17.12;34.70;99174.78;4374272;32;33074;-87
2023/05/02 00:51:52;;;;;;;3.90;1.73;;;;;;;16.91;34.29;99168.97;4357049;32;34620;-87
2023/05/02 00:54:20;;;;;;;7.45;1.90;;;;;;;16.63;35.22;99178.87;4357517;32;33870;-87
2023/05/02 00:56:47;;;;;;;6.80;2.03;;;;;;;16.69;35.30;99173.56;4362148;32;33541;-87
2023/05/02 00:59:15;;;;;;;4.40;1.77;;;;;;;16.87;35.33;99177.75;4360177;32;33529;-86
2023/05/02 01:02:01;;;;;;;6.53;2.15;;;;;;;16.64;36.58;99175.38;4366752;32;34089;-87
2023/05/02 01:04:32;;;;;;;4.78;1.85;;;;;;;16.60;35.69;99178.06;4337021;32;33446;-88
2023/05/02 01:07:31;;;;;;;6.22;2.08;;;;;;;16.47;35.49;99183.41;4347354;32;32651;-87
2023/05/02 01:10:20;;;;;;;6.20;2.20;;;;;;;16.66;35.36;99177.97;4361120;32;33181;-87
2023/05/02 01:12:56;;;;;;;5.68;1.90;;;;;;;16.39;35.80;99180.00;4347599;32;33714;-87
2023/05/02 01:15:24;;;;;;;7.62;2.00;;;;;;;16.53;35.36;99175.50;4346045;32;33896;-86
2023/05/02 01:17:53;;;;;;;6.00;2.20;;;;;;;16.22;35.76;99177.56;4345178;32;34630;-87
2023/05/02 01:20:24;;;;;;;5.10;2.08;;;;;;;16.31;36.04;99176.59;4343878;32;34059;-88
2023/05/02 01:22:53;;;;;;;5.60;2.30;;;;;;;16.49;35.89;99170.31;4345871;32;34655;-87
2023/05/02 01:25:32;;;;;;;4.05;2.10;;;;;;;16.50;37.05;99177.28;4347080;32;32841;-88
2023/05/02 01:28:21;;;;;;;5.47;2.37;;;;;;;16.51;36.59;99179.88;4360351;32;33703;-89
2023/05/02 01:30:49;;;;;;;5.18;2.33;;;;;;;16.82;35.88;99174.34;4345057;32;33585;-86
2023/05/02 01:33:18;;;;;;;10.43;2.85;;;;;;;16.35;36.62;99173.06;4335037;32;35192;-88
2023/05/02 01:35:49;;;;;;;3.90;1.80;;;;;;;16.41;36.45;99177.37;4347329;32;34179;-88
2023/05/02 01:38:18;;;;;;;4.78;2.15;;;;;;;16.35;36.02;99167.84;4334795;32;33535;-88
2023/05/02 01:40:46;;;;;;;6.32;2.33;;;;;;;16.43;35.61;99171.22;4347504;32;33498;-88
2023/05/02 01:43:14;;;;;;;4.37;1.90;;;;;;;16.30;35.85;99175.75;4347325;32;33792;-89
2023/05/02 01:45:43;;;;;;;4.95;2.10;;;;;;;16.21;36.33;99172.34;4360623;32;33677;-87
2023/05/02 01:48:12;;;;;;;8.85;2.35;;;;;;;16.00;36.71;99168.19;4360880;32;33997;-89
2023/05/02 01:50:41;;;;;;;5.03;2.12;;;;;;;15.92;36.95;99163.03;4332607;33;33380;-88
2023/05/02 01:53:10;;;;;;;5.25;2.25;;;;;;;15.99;37.21;99166.47;4342262;32;33694;-88
2023/05/02 01:55:38;;;;;;;4.53;1.80;;;;;;;16.11;36.95;99163.72;4347502;32;34119;-89
2023/05/02 01:58:06;;;;;;;7.55;2.20;;;;;;;16.50;36.88;99167.66;4347351;32;33457;-87
2023/05/02 02:00:34;;;;;;;5.78;2.30;;;;;;;16.42;36.79;99163.41;4360676;32;33294;-88
2023/05/02 02:03:04;;;;;;;4.93;1.85;;;;;;;16.30;36.02;99159.19;4347221;32;34343;-88
2023/05/02 02:05:34;;;;;;;7.35;2.37;;;;;;;16.04;36.47;99155.06;4347311;32;34396;-87
2023/05/02 02:08:03;;;;;;;4.90;1.98;;;;;;;16.32;36.20;99156.53;4347488;32;34290;-87
2023/05/02 02:10:35;;;;;;;5.60;1.92;;;;;;;16.12;36.58;99156.75;4360605;32;33544;-87
2023/05/02 02:13:06;;;;;;;6.07;2.15;;;;;;;16.36;35.96;99151.25;4360457;32;33210;-88
2023/05/02 02:15:35;;;;;;;5.28;2.33;;;;;;;15.74;37.30;99155.34;4347085;32;35001;-89
2023/05/02 02:18:17;;;;;;;5.30;2.22;;;;;;;15.89;38.06;99152.59;4360574;32;33970;-87
2023/05/02 02:20:45;;;;;;;7.37;2.40;;;;;;;15.68;37.85;99144.94;4347171;32;33656;-89
2023/05/02 02:23:14;;;;;;;6.12;2.28;;;;;;;15.92;38.17;99141.25;4346795;32;33954;-88
2023/05/02 02:25:43;;;;;;;5.05;2.30;;;;;;;15.81;38.43;99147.44;4347420;32;33895;-88
2023/05/02 02:28:11;;;;;;;4.00;2.10;;;;;;;15.83;39.28;99152.63;4346430;32;33810;-88
2023/05/02 02:30:39;;;;;;;5.18;2.37;;;;;;;16.01;38.98;99142.03;4357213;32;34205;-88
2023/05/02 02:33:06;;;;;;;4.40;2.12;;;;;;;16.14;37.89;99141.88;4358013;32;33945;-87
2023/05/02 02:35:39;;;;;;;7.10;2.20;;;;;;;16.09;39.91;99144.56;4359067;32;34929;-88
2023/05/02 02:38:26;;;;;;;5.70;2.22;;;;;;;16.03;40.04;99145.50;4327118;32;34533;-88
2023/05/02 02:41:17;;;;;;;4.57;2.20;;;;;;;16.14;39.92;99141.88;4345548;32;34160;-89
2023/05/02 02:44:03;;;;;;;8.77;2.50;;;;;;;16.14;40.68;99142.78;4345982;32;33544;-88
2023/05/02 02:46:37;;;;;;;;;;;;;;;15.97;41.22;99145.53;4347472;32;34683;-87
2023/05/02 02:49:13;;;;;;;5.75;2.20;;;;;;;16.18;41.42;99154.94;4359899;32;34119;-88
2023/05/02 02:51:57;;;;;;;7.12;2.20;;;;;;;16.19;41.24;99140.13;4360012;32;34192;-87
2023/05/02 02:54:32;;;;;;;4.85;2.30;;;;;;;16.08;42.45;99140.22;4347125;32;34949;-88
2023/05/02 02:57:38;;;;;;;6.12;2.67;;;;;;;16.06;42.18;99144.59;4346810;32;34004;-88
2023/05/02 03:00:16;;;;;;;6.10;2.58;;;;;;;15.90;42.73;99149.09;4345114;32;33303;-87
2023/05/02 03:02:45;;;;;;;6.15;2.60;;;;;;;15.82;43.11;99145.69;4347043;32;34092;-88
2023/05/02 03:05:14;;;;;;;6.37;2.60;;;;;;;15.94;43.06;99153.41;4346757;32;34052;-88
2023/05/02 03:07:41;;;;;;;6.00;2.58;;;;;;;15.73;43.90;99151.00;4346718;32;33678;-88
2023/05/02 03:10:10;;;;;;;5.82;2.65;;;;;;;15.82;44.16;99156.16;4346494;32;33313;-88
2023/05/02 03:12:39;;;;;;;5.55;2.97;;;;;;;15.97;44.02;99144.69;4347412;32;33261;-89
2023/05/02 03:15:24;;;;;;;7.97;3.03;;;;;;;15.82;44.06;99151.78;4346937;32;32417;-88
2023/05/02 03:17:52;;;;;;;6.57;3.12;;;;;;;15.89;44.78;99155.22;4359994;32;34068;-88
2023/05/02 03:20:19;;;;;;;6.12;3.30;;;;;;;15.50;45.80;99165.09;4360472;32;33675;-87
2023/05/02 03:22:47;;;;;;;6.68;3.42;;;;;;;15.57;45.91;99161.56;4360315;32;33282;-87
2023/05/02 03:25:15;;;;;;;6.12;2.90;;;;;;;15.35;46.91;99162.56;4359892;32;33654;-88
2023/05/02 03:27:42;;;;;;;8.15;3.47;;;;;;;15.32;46.71;99165.19;4359854;32;33408;-89
2023/05/02 03:30:10;;;;;;;6.43;2.83;;;;;;;15.46;46.78;99165.97;4360154;32;34033;-88
2023/05/02 03:32:38;;;;;;;6.90;3.42;;;;;;;15.61;46.41;99164.13;4346491;32;32826;-90
2023/05/02 03:35:06;;;;;;;5.87;2.95;;;;;;;15.39;47.56;99172.13;4359730;32;34664;-90
2023/05/02 03:37:34;;;;;;;5.78;2.70;;;;;;;15.67;46.52;99162.34;4358816;32;34947;-88
2023/05/02 03:40:02;;;;;;;5.50;2.90;;;;;;;15.42;47.04;99166.00;4359060;32;34045;-89
2023/05/02 03:42:30;;;;;;;9.43;3.10;;;;;;;15.44;46.84;99172.09;4357914;32;34322;-90
2023/05/02 03:44:58;;;;;;;5.32;2.90;;;;;;;15.39;46.94;99172.13;4358019;32;34766;-90
2023/05/02 03:47:26;;;;;;;5.82;2.85;;;;;;;15.53;46.85;99174.62;4359927;32;35108;-89
2023/05/02 03:49:54;;;;;;;7.97;3.00;;;;;;;15.55;46.59;99173.75;4359706;32;33861;-86
2023/05/02 03:52:22;;;;;;;6.95;3.37;;;;;;;15.42;46.97;99176.44;4359778;32;33456;-86
2023/05/02 03:54:50;;;;;;;7.18;3.75;;;;;;;15.45;47.28;99177.28;4359392;32;33804;-87
2023/05/02 03:57:18;;;;;;;7.87;3.28;;;;;;;15.43;47.82;99183.44;4347016;32;34773;-87
2023/05/02 03:59:48;;;;;;;5.28;2.90;;;;;;;15.46;48.08;99179.03;4359917;32;34624;-88
2023/05/02 04:02:16;;;;;;;9.40;3.40;;;;;;;15.34;47.88;99181.72;4359949;32;33514;-87
2023/05/02 04:04:45;;;;;;;6.87;3.42;;;;;;;15.35;46.56;99178.25;4359558;32;33698;-88
2023/05/02 04:07:17;;;;;;;6.37;3.60;;;;;;;15.15;46.36;99182.69;4359741;32;34031;-88
2023/05/02 04:09:46;;;;;;;8.05;3.20;;;;;;;15.38;46.99;99183.47;4359667;32;33710;-89
2023/05/02 04:12:14;;;;;;;5.95;3.08;;;;;;;15.54;46.71;99189.44;4359605;32;33123;-89
2023/05/02 04:14:42;;;;;;;7.05;3.05;;;;;;;15.49;46.91;99191.19;4345860;32;33685;-87
2023/05/02 04:17:10;;;;;;;6.12;3.42;;;;;;;15.79;45.52;99177.94;4345795;32;34900;-87
2023/05/02 04:19:38;;;;;;;7.40;3.25;;;;;;;15.79;46.49;99182.31;4358681;32;33541;-91
2023/05/02 04:22:05;;;;;;;5.95;3.10;;;;;;;15.55;45.30;99181.59;4324843;32;34237;-87
2023/05/02 04:24:34;;;;;;;6.57;3.33;;;;;;;15.78;45.33;99186.66;4357017;32;33616;-87
2023/05/02 04:27:01;;;;;;;8.27;3.58;;;;;;;15.85;44.82;99187.50;4361092;32;34244;-89
2023/05/02 04:29:29;;;;;;;6.68;3.20;;;;;;;16.37;45.11;99188.78;4359169;32;34620;-86
2023/05/02 04:31:57;;;;;;;6.87;3.42;;;;;;;16.77;43.31;99186.59;4356630;32;33895;-88
2023/05/02 04:34:27;;;;;;;6.60;3.65;;;;;;;16.84;44.41;99188.25;4356425;32;33806;-88
2023/05/02 04:36:55;;;;;;;5.50;2.75;;;;;;;17.35;42.35;99185.84;4358940;32;34797;-89
2023/05/02 04:39:25;;;;;;;9.10;3.42;;;;;;;17.51;41.99;99182.09;4356261;32;33583;-88
2023/05/02 04:41:53;;;;;;;5.82;2.97;;;;;;;17.74;41.82;99194.00;4345848;32;33132;-88
2023/05/02 04:44:21;;;;;;;7.25;3.10;;;;;;;18.07;41.01;99187.34;4359789;32;33587;-88
2023/05/02 04:46:49;;;;;;;6.53;2.90;;;;;;;18.09;40.57;99189.94;4357562;32;33785;-87
2023/05/02 04:49:18;;;;;;;10.85;3.05;;;;;;;18.25;40.60;99191.41;4345342;32;33279;-87
2023/05/02 04:51:46;;;;;;;5.93;2.95;;;;;;;18.12;39.98;99189.91;4359037;32;33573;-88
2023/05/02 04:54:14;;;;;;;7.20;2.80;;;;;;;18.19;40.46;99196.78;4358487;32;34384;-88
2023/05/02 04:56:43;;;;;;;5.43;3.08;;;;;;;18.68;39.97;99201.97;4354732;32;32411;-89
2023/05/02 04:59:11;;;;;;;7.28;3.10;;;;;;;18.84;39.57;99199.94;4355995;32;34049;-89
2023/05/02 05:01:38;;;;;;;8.00;3.53;;;;;;;18.74;39.34;99208.87;4343088;32;33464;-90
2023/05/02 05:04:06;;;;;;;5.82;2.85;;;;;;;17.90;40.28;99206.00;4346492;32;33189;-91
2023/05/02 05:06:34;;;;;;;7.95;3.45;;;;;;;18.28;40.22;99206.22;4361322;32;34969;-89
2023/05/02 05:09:03;;;;;;;10.07;3.47;;;;;;;18.69;39.98;99208.09;4360901;32;33219;-89
2023/05/02 05:11:30;;;;;;;9.40;3.08;;;;;;;18.31;40.16;99204.41;4347390;32;32303;-91
2023/05/02 05:13:59;;;;;;;6.47;3.10;;;;;;;18.64;39.50;99207.31;4361273;32;34583;-90
2023/05/02 05:16:27;;;;;;;8.35;3.35;;;;;;;18.51;39.80;99203.19;4361067;32;34100;-90
2023/05/02 05:18:56;;;;;;;6.50;3.30;;;;;;;18.14;40.22;99207.31;4361087;32;34693;-90
2023/05/02 05:21:24;;;;;;;6.30;3.42;;;;;;;18.45;40.28;99205.03;4347587;32;32687;-89
2023/05/02 05:23:51;;;;;;;10.60;3.42;;;;;;;17.93;40.75;99205.94;4360859;32;34814;-91
2023/05/02 05:26:20;;;;;;;5.93;3.40;;;;;;;18.01;41.08;99218.06;4347553;32;34346;-91
2023/05/02 05:28:49;;;;;;;7.22;3.55;;;;;;;18.09;40.37;99217.03;4360921;32;34094;-90
2023/05/02 05:31:17;;;;;;;5.32;3.28;;;;;;;18.05;40.70;99207.50;4361568;32;33261;-89
2023/05/02 05:33:45;;;;;;;7.62;3.28;;;;;;;17.62;41.36;99225.66;4347360;32;33836;-90
2023/05/02 05:36:13;;;;;;;6.40;3.40;;;;;;;17.49;42.03;99223.19;4361355;32;34998;-92
2023/05/02 05:38:41;;;;;;;12.85;4.15;;;;;;;17.62;41.57;99236.13;4361302;32;33968;-90
2023/05/02 05:41:10;;;;;;;10.88;4.28;;;;;;;18.07;41.89;99223.19;4346785;32;33161;-89
2023/05/02 05:43:37;;;;;;;12.13;4.20;;;;;;;18.05;40.44;99225.00;4361175;32;33758;-89
2023/05/02 05:46:05;;;;;;;8.75;3.72;;;;;;;17.77;41.61;99233.31;4347013;32;34891;-89
2023/05/02 05:48:33;;;;;;;7.78;4.05;;;;;;;17.68;40.82;99236.88;4360744;32;34586;-91
2023/05/02 05:51:04;;;;;;;6.53;4.10;;;;;;;18.07;40.96;99237.22;4346987;32;32242;-91
2023/05/02 05:53:32;;;;;;;7.57;3.78;;;;;;;17.66;41.53;99243.06;4360801;32;34892;-90
2023/05/02 05:56:10;;;;;;;6.97;3.70;;;;;;;17.99;41.16;99237.34;4354903;32;35008;-90
2023/05/02 05:58:39;;;;;;;7.50;3.40;;;;;;;17.70;41.53;99240.38;4346140;33;35060;-92
2023/05/02 06:01:07;;;;;;;7.95;3.85;;;;;;;17.99;41.32;99241.69;4347349;32;33491;-89
2023/05/02 06:03:35;;;;;;;5.32;3.60;;;;;;;17.83;41.65;99233.19;4354145;32;34869;-90
2023/05/02 06:06:03;;;;;;;7.53;3.45;;;;;;;17.84;42.01;99245.44;4346559;33;33895;-89
2023/05/02 06:41:12;;;;;;;6.95;3.50;;;;;;;18.72;39.99;99250.09;4417075;27;20095;-81
2023/05/02 06:43:40;;;;;;;11.07;3.87;;;;;;;18.37;40.39;99253.28;4359761;32;34626;-80
2023/05/02 06:46:08;;;;;;;12.48;4.03;;;;;;;18.41;41.17;99258.50;4346183;32;33347;-80
2023/05/02 06:48:35;;;;;;;8.00;3.62;;;;;;;18.82;40.09;99251.63;4359620;32;33249;-82
2023/05/02 06:51:03;;;;;;;8.82;4.65;;;;;;;18.93;40.50;99260.16;4360386;32;34074;-81
2023/05/02 06:53:31;;;;;;;7.03;3.75;;;;;;;18.88;39.61;99255.91;4346797;32;34146;-81
2023/05/02 06:55:59;;;;;;;8.95;3.60;;;;;;;19.39;39.11;99256.56;4346762;32;33589;-80
2023/05/02 06:58:27;;;;;;;11.73;3.55;;;;;;;19.16;39.63;99250.94;4346401;32;33490;-81
2023/05/02 07:00:54;;;;;;;7.28;3.30;;;;;;;19.25;39.33;99256.03;4346846;32;34007;-81
2023/05/02 07:03:22;;;;;;;6.75;3.67;;;;;;;19.27;39.34;99259.47;4360117;32;33870;-82
2023/05/02 07:05:49;;;;;;;7.50;3.83;;;;;;;19.52;38.60;99258.97;4360615;32;33902;-82
2023/05/02 07:08:17;;;;;;;8.30;4.30;;;;;;;19.60;39.56;99252.63;4360392;32;33885;-81
2023/05/02 07:10:44;;;;;;;8.68;3.78;;;;;;;19.52;39.37;99251.06;4360437;32;33656;-84
2023/05/02 07:13:12;;;;;;;6.60;3.28;;;;;;;19.57;38.88;99249.19;4360096;32;35221;-85
2023/05/02 07:15:40;;;;;;;8.93;3.15;;;;;;;19.89;39.14;99254.63;4360290;32;34502;-82
2023/05/02 07:18:08;;;;;;;8.40;3.40;;;;;;;19.64;39.15;99253.44;4360266;32;33580;-82
2023/05/02 07:20:37;;;;;;;11.85;3.40;;;;;;;19.90;39.04;99256.34;4360375;32;34853;-82
2023/05/02 07:23:05;;;;;;;7.12;3.45;;;;;;;20.15;39.44;99250.47;4360297;32;34777;-82
2023/05/02 07:25:32;;;;;;;6.43;3.58;;;;;;;20.24;39.46;99255.53;4359924;32;34332;-83
2023/05/02 07:28:00;;;;;;;8.32;3.55;;;;;;;20.49;38.15;99246.97;4360283;32;33117;-82
2023/05/02 07:30:27;;;;;;;11.05;3.67;;;;;;;20.86;37.63;99252.16;4360495;32;33802;-81
2023/05/02 07:32:54;;;;;;;8.43;3.70;;;;;;;20.86;37.29;99253.03;4360133;32;34201;-82
2023/05/02 07:35:22;;;;;;;6.82;3.28;;;;;;;20.98;37.19;99253.59;4360116;32;33989;-82
2023/05/02 07:37:50;;;;;;;9.40;3.58;;;;;;;20.08;38.42;99256.81;4360190;32;33352;-82
2023/05/02 07:40:17;;;;;;;7.00;3.70;;;;;;;20.46;38.68;99258.47;4359709;32;34104;-82
2023/05/02 07:42:45;;;;;;;9.60;3.12;;;;;;;20.61;37.88;99252.00;4359824;32;34238;-83
2023/05/02 07:45:13;;;;;;;6.87;2.95;;;;;;;21.14;38.15;99261.03;4359931;32;33535;-84
2023/05/02 07:47:40;;;;;;;11.80;3.50;;;;;;;21.06;37.45;99239.31;4346494;32;33448;-82
2023/05/02 07:50:09;;;;;;;12.60;3.50;;;;;;;20.62;36.76;99253.69;4359978;32;33856;-83
2023/05/02 07:52:36;;;;;;;7.30;3.60;;;;;;;21.18;37.30;99248.63;4359775;32;33819;-82
2023/05/02 07:55:04;;;;;;;6.72;3.20;;;;;;;20.95;36.62;99257.19;4359742;32;34191;-82
2023/05/02 07:57:31;;;;;;;6.82;3.22;;;;;;;20.96;35.90;99256.28;4360017;32;32982;-83
2023/05/02 07:59:59;;;;;;;7.65;2.97;;;;;;;21.10;36.57;99251.50;4360082;32;33753;-84
2023/05/02 08:02:27;;;;;;;7.30;3.35;;;;;;;21.40;36.73;99258.56;4359871;32;34942;-83
2023/05/02 08:04:55;;;;;;;7.25;3.22;;;;;;;20.77;37.21;99255.06;4359907;32;33915;-82
2023/05/02 08:07:23;;;;;;;6.72;3.10;;;;;;;20.80;37.11;99261.13;4359868;32;32976;-84
2023/05/02 08:09:50;;;;;;;6.85;3.22;;;;;;;21.21;37.48;99255.56;4359660;32;34177;-85
2023/05/02 08:12:18;;;;;;;5.28;2.75;;;;;;;21.68;36.03;99258.59;4359814;32;34967;-82
2023/05/02 08:14:45;;;;;;;6.80;2.92;;;;;;;21.77;37.28;99256.53;4359510;32;34718;-82
2023/05/02 08:17:12;;;;;;;7.07;3.00;;;;;;;20.79;35.92;99262.00;4359795;32;33122;-84
2023/05/02 08:19:40;;;;;;;6.97;3.12;;;;;;;21.16;35.66;99271.53;4359591;32;34095;-82
2023/05/02 08:22:07;;;;;;;7.32;2.90;;;;;;;20.81;36.42;99268.09;4359408;32;34058;-85
2023/05/02 08:24:35;;;;;;;5.50;2.70;;;;;;;20.86;36.34;99266.19;4359373;32;34041;-82
2023/05/02 08:27:03;;;;;;;6.25;2.85;;;;;;;20.84;36.20;99261.91;4359381;32;33525;-83
2023/05/02 08:29:30;;;;;;;7.53;3.00;;;;;;;21.08;36.15;99260.34;4359342;32;33650;-83
2023/05/02 08:31:58;;;;;;;8.23;2.60;;;;;;;20.87;36.92;99261.78;4345871;32;34198;-83
2023/05/02 08:34:25;;;;;;;6.53;2.83;;;;;;;20.62;36.53;99254.56;4345871;32;34610;-82
2023/05/02 08:36:53;;;;;;;5.43;2.50;;;;;;;21.27;36.67;99250.97;4359143;32;33477;-84
2023/05/02 08:39:23;;;;;;;8.73;2.90;;;;;;;21.55;36.29;99266.00;4360495;32;34394;-82
2023/05/02 08:41:51;;;;;;;7.45;2.80;;;;;;;21.41;34.86;99253.25;4347907;32;34123;-82
2023/05/02 08:44:19;;;;;;;4.93;2.75;;;;;;;21.79;35.08;99236.25;4361275;32;34671;-84
2023/05/02 08:46:49;;;;;;;6.82;2.67;;;;;;;22.00;34.93;99244.38;4361372;32;33160;-83
2023/05/02 08:49:18;;;;;;;7.65;2.90;;;;;;;22.01;35.26;99240.81;4348063;32;34099;-85
2023/05/02 08:51:48;;;;;;;7.12;3.00;;;;;;;22.12;35.80;99249.25;4347731;32;33591;-82
2023/05/02 08:54:16;;;;;;;7.93;2.97;;;;;;;22.20;34.93;99252.56;4361022;32;34041;-85
2023/05/02 08:56:44;;;;;;;5.65;3.08;;;;;;;22.22;35.47;99247.22;4347855;32;34351;-82
2023/05/02 08:59:11;;;;;;;6.28;2.87;;;;;;;22.27;34.88;99240.84;4361480;32;33849;-86
2023/05/02 09:01:40;;;;;;;8.43;3.00;;;;;;;22.43;34.94;99237.72;4361339;32;33984;-84
2023/05/02 09:04:08;;;;;;;12.43;3.20;;;;;;;22.07;35.96;99238.84;4361167;32;34660;-84
2023/05/02 09:06:35;;;;;;;8.38;2.72;;;;;;;22.29;36.84;99243.44;4361313;32;33263;-82
2023/05/02 09:09:03;;;;;;;7.50;3.22;;;;;;;22.49;34.98;99232.19;4361377;32;34080;-84
2023/05/02 09:11:31;;;;;;;6.00;3.17;;;;;;;22.60;36.25;99235.31;4361218;32;34226;-83
2023/05/02 09:14:02;;;;;;;7.22;3.25;;;;;;;22.97;34.25;99232.25;4348054;32;33916;-82
2023/05/02 09:16:37;;;;;;;7.15;3.03;;;;;;;23.31;33.96;99226.56;4361396;32;33309;-83
2023/05/02 09:19:05;;;;;;;6.25;3.10;;;;;;;23.09;33.38;99225.66;4361059;32;34303;-82
2023/05/02 09:21:38;;;;;;;9.73;3.25;;;;;;;22.44;35.05;99226.22;4361184;32;34229;-82
2023/05/02 09:24:20;;;;;;;5.78;2.62;;;;;;;22.14;34.77;99228.97;4360805;32;34081;-83
2023/05/02 09:26:59;;;;;;;4.72;2.53;;;;;;;22.10;34.94;99238.75;4361090;32;33668;-82
2023/05/02 09:29:29;;;;;;;9.85;2.60;;;;;;;22.22;34.11;99242.78;4361207;32;33680;-83
2023/05/02 09:31:57;;;;;;;7.68;2.75;;;;;;;22.11;35.18;99229.03;4347767;32;34124;-82
2023/05/02 09:34:25;;;;;;;8.60;3.17;;;;;;;22.83;34.35;99238.00;4361126;32;34189;-82
2023/05/02 09:36:56;;;;;;;9.95;3.03;;;;;;;22.60;33.85;99227.41;4347309;32;32010;-82
2023/05/02 09:39:27;;;;;;;5.65;2.80;;;;;;;22.73;33.69;99233.09;4335588;32;34583;-82
2023/05/02 09:41:56;;;;;;;6.87;3.15;;;;;;;22.53;34.30;99232.03;4361045;32;33819;-83
2023/05/02 09:44:25;;;;;;;10.20;2.55;;;;;;;22.91;34.01;99239.50;4360977;32;33441;-81
2023/05/02 09:46:54;;;;;;;10.90;2.72;;;;;;;22.84;33.17;99236.22;4361220;32;33130;-84
2023/05/02 09:49:43;;;;;;;6.65;2.60;;;;;;;22.93;33.34;99245.66;4347087;32;33976;-77
2023/05/02 09:52:16;;;;;;;10.65;2.47;;;;;;;22.56;32.67;99229.28;4361239;32;34014;-82
2023/05/02 09:54:45;;;;;;;9.73;3.25;;;;;;;22.92;33.51;99235.97;4360756;32;34594;-82
2023/05/02 09:57:39;;;;;;;4.70;2.12;;;;;;;23.44;32.96;99236.66;4361013;32;32825;-82
2023/05/02 10:00:07;;;;;;;5.30;2.60;;;;;;;23.34;36.02;99235.31;4347551;32;34035;-82
2023/05/02 10:02:39;;;;;;;4.35;1.92;;;;;;;23.54;31.35;99243.34;4360918;32;34577;-82
2023/05/02 10:05:09;;;;;;;4.62;2.42;;;;;;;23.30;31.99;99240.72;4347416;32;34645;-82
2023/05/02 10:07:38;;;;;;;4.97;2.00;;;;;;;23.53;31.51;99221.31;4347383;32;34153;-82
2023/05/02 10:10:06;;;;;;;6.93;2.33;;;;;;;23.89;32.09;99222.56;4347453;32;34886;-82
2023/05/02 10:12:34;;;;;;;4.95;2.10;;;;;;;23.83;31.96;99228.09;4347368;32;34154;-82
2023/05/02 10:15:03;;;;;;;5.05;2.20;;;;;;;23.39;33.34;99228.06;4347274;32;33980;-82
2023/05/02 10:17:36;;;;;;;7.15;2.67;;;;;;;23.74;32.19;99232.84;4347705;32;33875;-81
2023/05/02 10:20:06;;;;;;;8.57;2.33;;;;;;;23.59;31.75;99228.12;4360591;32;34652;-83
2023/05/02 10:22:34;;;;;;;5.97;2.47;;;;;;;23.84;31.46;99217.47;4347478;32;33890;-82
2023/05/02 10:25:02;;;;;;;5.50;2.20;;;;;;;23.78;31.16;99215.91;4360807;32;33852;-81
2023/05/02 10:27:31;;;;;;;5.12;2.25;;;;;;;23.67;31.86;99231.37;4347548;32;34487;-82
2023/05/02 10:30:00;;;;;;;6.62;2.67;;;;;;;23.65;32.82;99225.25;4360910;32;34446;-82
2023/05/02 10:32:28;;;;;;;5.25;2.50;;;;;;;23.83;32.38;99222.81;4347629;32;35165;-82
2023/05/02 10:34:56;;;;;;;4.80;2.67;;;;;;;23.78;31.78;99223.84;4347210;32;33860;-81
2023/05/02 10:37:25;;;;;;;9.32;2.62;;;;;;;23.90;32.17;99213.69;4347508;32;33395;-82
2023/05/02 10:39:52;;;;;;;5.57;2.50;;;;;;;23.75;32.56;99216.06;4346925;32;33746;-81
2023/05/02 10:42:20;;;;;;;8.57;2.58;;;;;;;24.12;32.21;99218.97;4347215;32;35095;-82
2023/05/02 10:44:49;;;;;;;8.18;2.40;;;;;;;23.74;32.49;99206.38;4334967;32;33778;-78
2023/05/02 10:47:25;;;;;;;6.10;2.42;;;;;;;24.10;32.55;99211.09;4347215;32;32264;-83
2023/05/02 10:49:55;;;;;;;4.43;2.35;;;;;;;23.77;32.53;99208.91;4347162;32;33975;-82
2023/05/02 10:52:31;;;;;;;10.98;2.70;;;;;;;23.82;32.77;99215.78;4360976;32;33845;-82
2023/05/02 10:55:19;;;;;;;5.00;2.75;;;;;;;24.03;33.08;99220.22;4347229;32;33908;-83
2023/05/02 10:57:56;;;;;;;4.62;2.47;;;;;;;23.99;32.29;99218.63;4360422;32;33011;-82
2023/05/02 11:00:26;;;;;;;6.30;2.83;;;;;;;23.97;32.03;99215.16;4360444;32;34065;-82
2023/05/02 11:02:53;;;;;;;5.75;3.00;;;;;;;23.70;32.46;99214.50;4346764;32;34040;-81
2023/05/02 11:05:23;;;;;;;6.47;2.83;;;;;;;23.22;33.20;99220.75;4346952;32;33746;-82
2023/05/02 11:08:16;;;;;;;6.53;2.85;;;;;;;23.64;32.21;99205.00;4360464;32;34290;-82
2023/05/02 11:10:46;;;;;;;7.50;2.92;;;;;;;23.90;32.56;99201.31;4360554;32;33987;-82
2023/05/02 11:13:14;;;;;;;7.75;3.15;;;;;;;24.06;32.11;99206.88;4346961;32;34146;-82
2023/05/02 11:15:41;;;;;;;7.10;2.62;;;;;;;24.41;32.90;99200.09;4346790;32;34566;-82
2023/05/02 11:18:13;;;;;;;6.32;2.97;;;;;;;24.41;32.11;99204.53;4360206;32;34202;-82
2023/05/02 11:20:42;;;;;;;6.68;2.67;;;;;;;24.15;31.26;99182.62;4360440;32;34645;-82
2023/05/02 11:23:12;;;;;;;8.23;2.83;;;;;;;24.47;32.00;99194.53;4346647;32;34335;-82
2023/05/02 11:25:42;;;;;;;7.20;2.85;;;;;;;24.88;32.78;99180.34;4360361;32;33778;-82
2023/05/02 11:28:46;;;;;;;7.37;2.55;;;;;;;24.73;31.84;99193.34;4360595;32;33633;-82
2023/05/02 11:31:27;;;;;;;9.43;2.92;;;;;;;24.55;31.97;99186.25;4347695;32;33659;-82
2023/05/02 11:33:58;;;;;;;6.97;2.58;;;;;;;24.39;31.84;99183.38;4360117;32;34143;-82
2023/05/02 11:36:33;;;;;;;6.40;2.17;;;;;;;24.50;31.14;99182.91;4334629;32;34605;-83
2023/05/02 11:39:04;;;;;;;8.18;2.70;;;;;;;25.02;31.08;99172.63;4359997;32;33410;-83
2023/05/02 11:41:41;;;;;;;6.30;3.28;;;;;;;24.66;31.59;99183.09;4360165;32;33631;-82
2023/05/02 11:44:09;;;;;;;10.18;3.33;;;;;;;24.46;31.62;99176.03;4360021;32;33921;-82
2023/05/02 11:46:38;;;;;;;7.57;2.20;;;;;;;24.48;31.15;99180.34;4360151;32;33973;-85
2023/05/02 11:49:06;;;;;;;6.80;1.70;;;;;;;24.81;31.21;99173.59;4360346;32;33256;-83
2023/05/02 11:51:36;;;;;;;11.15;2.10;;;;;;;24.42;29.64;99172.66;4359875;32;33280;-82
2023/05/02 11:54:06;;;;;;;7.80;2.15;;;;;;;24.27;29.41;99174.16;4346362;32;34254;-82
2023/05/02 11:56:33;;;;;;;8.02;2.00;;;;;;;24.47;29.27;99167.16;4359820;32;34384;-81
2023/05/02 11:59:02;;;;;;;4.90;1.70;;;;;;;23.98;28.98;99180.69;4359761;32;33603;-83
2023/05/02 12:01:30;;;;;;;7.15;1.92;;;;;;;24.48;29.37;99177.69;4359695;32;34843;-82
2023/05/02 12:04:20;;;;;;;8.80;1.70;;;;;;;24.56;28.67;99174.72;4359762;32;34273;-81
2023/05/02 12:06:57;;;;;;;5.43;2.00;;;;;;;25.18;28.35;99171.00;4359802;32;34440;-82
2023/05/02 12:09:25;;;;;;;7.20;1.95;;;;;;;25.23;28.37;99169.00;4346327;32;33345;-82
2023/05/02 12:11:52;;;;;;;7.72;1.73;;;;;;;25.35;28.14;99172.88;4359887;32;34618;-83
2023/05/02 12:14:32;;;;;;;7.28;2.15;;;;;;;25.61;28.43;99174.28;4348444;32;34886;-82
2023/05/02 12:17:02;;;;;;;6.70;2.10;;;;;;;25.53;28.27;99165.81;4348299;32;34566;-82
2023/05/02 12:19:29;;;;;;;4.45;1.92;;;;;;;25.14;28.02;99164.13;4348135;32;33612;-82
2023/05/02 12:21:57;;;;;;;7.60;2.05;;;;;;;25.45;28.27;99168.81;4348082;32;33659;-83